Flight Track Log - Related Links

Times and Time Zones

All times are in EDT time to prevent confusion due to time zone crossing. See the UAL33 flight status page for this flight to view local times or setup timezone preferences in your user account.

Time Position Orientation Groundspeed Altitude Reporting Facility
EDT Latitude Longitude Course Direction KTS MPH feet Rate Location/Type
04:41AM 35.6856 140.4321 150° Southeast 203 234 3,500  Level FlightAware ADS-B
04:42AM 35.6628 140.4486 150° Southeast 243 280 3,900 1,800 Climbing FlightAware ADS-B
04:42AM 35.6424 140.4633 149° Southeast 251 289 4,700 2,025 Climbing FlightAware ADS-B
04:43AM 35.5714 140.5144 150° Southeast 318 366 6,600 2,074 Climbing FlightAware ADS-B
04:43AM 35.5456 140.5330 149° Southeast 319 367 7,500 2,550 Climbing FlightAware ADS-B
04:44AM 35.5207 140.5510 149° Southeast 325 374 8,300 1,950 Climbing FlightAware ADS-B
04:44AM 35.4934 140.5706 150° Southeast 340 391 8,800 900 Climbing FlightAware ADS-B
04:44AM 35.4671 140.5909 139° Southeast 344 396 8,900 150 Climbing FlightAware ADS-B
04:45AM 35.4482 140.6247 110° East 337 388 8,900  Level FlightAware ADS-B
04:45AM 35.4442 140.6562 87° East 334 384 8,900  Level FlightAware ADS-B
04:45AM 35.4487 140.6978 84° East 333 383 8,900  Level FlightAware ADS-B
04:46AM 35.4528 140.7367 84° East 331 381 8,900  Level FlightAware ADS-B
04:46AM 35.4570 140.7755 84° East 331 381 8,900 158 Level FlightAware ADS-B
04:46AM 35.4605 140.8071 84° East 333 383 9,000 1,729 Climbing FlightAware ADS-B
04:47AM 35.4688 140.8851 84° East 346 398 10,600 2,325 Climbing FlightAware ADS-B
04:48AM 35.4771 140.9607 82° East 367 422 12,100 2,550 Climbing FlightAware ADS-B
04:48AM 35.4815 141.0498 96° East 385 443 14,000 2,734 Climbing FlightAware ADS-B
04:49AM 35.4755 141.1345 92° East 397 457 15,700 2,625 Climbing FlightAware ADS-B
04:50AM 35.4729 141.2298 91° East 408 470 17,500 2,386 Climbing FlightAware ADS-B
04:50AM 35.4705 141.3251 91° East 421 484 19,000 2,203 Climbing FlightAware ADS-B
04:51AM 35.4677 141.4171 92° East 433 498 20,400 1,808 Climbing FlightAware ADS-B
04:51AM 35.4650 141.5078 92° East 454 522 21,200 1,500 Climbing FlightAware ADS-B
04:52AM 35.4619 141.6043 92° East 471 542 22,200 1,643 Climbing FlightAware ADS-B
04:53AM 35.4576 141.7313 93° East 487 560 23,500 1,765 Climbing FlightAware ADS-B
04:53AM 35.4542 141.8284 92° East 494 568 24,700 1,833 Climbing FlightAware ADS-B
04:54AM 35.4509 141.9334 92° East 503 579 25,700 1,583 Climbing FlightAware ADS-B
04:55AM 35.4470 142.0425 92° East 517 595 26,600 1,364 Climbing FlightAware ADS-B
04:55AM 35.4418 142.1923 92° East 517 595 27,700 1,252 Climbing FlightAware ADS-B
04:58AM 35.4226 142.6842 92° East 517 595 30,900 81 Climbing FlightAware ADS-B
05:01AM 35.6119 143.0458 57° Northeast  Level Estimated
05:02AM 35.6900 143.1959 57° Northeast  Level Estimated
05:03AM 35.7678 143.3463 57° Northeast  Level Estimated
05:04AM 35.8455 143.4969 58° Northeast  Level Estimated
05:05AM 35.9229 143.6479 58° Northeast  Level Estimated
05:06AM 36.0002 143.7992 58° Northeast  Level Estimated
05:07AM 36.0773 143.9507 58° Northeast  Level Estimated
05:08AM 36.1542 144.1026 58° Northeast  Level Estimated
05:09AM 36.2309 144.2548 58° Northeast  Level Estimated
05:10AM 36.3074 144.4073 58° Northeast  Level Estimated
05:11AM 36.3837 144.5600 58° Northeast  Level Estimated
05:12AM 36.4598 144.7131 58° Northeast  Level Estimated
05:13AM 36.5356 144.8661 58° Northeast  Level Estimated
05:14AM 36.6112 145.0195 58° Northeast  Level Estimated
05:15AM 36.6866 145.1732 59° Northeast  Level Estimated
05:16AM 36.7618 145.3272 59° Northeast  Level Estimated
05:17AM 36.8368 145.4815 59° Northeast  Level Estimated
05:18AM 36.9116 145.6361 59° Northeast  Level Estimated
05:19AM 36.9862 145.7910 59° Northeast  Level Estimated
05:20AM 37.0606 145.9462 59° Northeast  Level Estimated
05:21AM 37.1348 146.1017 59° Northeast  Level Estimated
05:22AM 37.2087 146.2575 59° Northeast  Level Estimated
05:23AM 37.2825 146.4136 59° Northeast  Level Estimated
05:24AM 37.3561 146.5700 59° Northeast  Level Estimated
05:25AM 37.4295 146.7267 59° Northeast  Level Estimated
05:26AM 37.5026 146.8837 60° Northeast  Level Estimated
05:27AM 37.5756 147.0411 60° Northeast  Level Estimated
05:28AM 37.6483 147.1987 60° Northeast  Level Estimated
05:29AM 37.7209 147.3567 60° Northeast  Level Estimated
05:30AM 37.7932 147.5150 60° Northeast  Level Estimated
05:31AM 37.8653 147.6735 60° Northeast  Level Estimated
05:32AM 37.9372 147.8324 60° Northeast  Level Estimated
05:33AM 38.0089 147.9916 60° Northeast  Level Estimated
05:34AM 38.0804 148.1511 60° Northeast  Level Estimated
05:35AM 38.1516 148.3109 60° Northeast  Level Estimated
05:36AM 38.2227 148.4711 61° Northeast  Level Estimated
05:37AM 38.2935 148.6315 61° Northeast  Level Estimated
05:38AM 38.3641 148.7923 61° Northeast  Level Estimated
05:39AM 38.4345 148.9533 61° Northeast  Level Estimated
05:40AM 38.5046 149.1147 61° Northeast  Level Estimated
05:41AM 38.5746 149.2764 61° Northeast  Level Estimated
05:42AM 38.6443 149.4384 61° Northeast  Level Estimated
05:43AM 38.7138 149.6007 61° Northeast  Level Estimated
05:44AM 38.7830 149.7634 61° Northeast  Level Estimated
05:45AM 38.8521 149.9263 61° Northeast  Level Estimated
05:46AM 38.9209 150.0896 62° Northeast  Level Estimated
05:47AM 38.9895 150.2532 62° Northeast  Level Estimated
05:48AM 39.0578 150.4171 62° Northeast  Level Estimated
05:49AM 39.1259 150.5813 62° Northeast  Level Estimated
05:50AM 39.1939 150.7459 62° Northeast  Level Estimated
05:51AM 39.2615 150.9107 62° Northeast  Level Estimated
05:52AM 39.3289 151.0759 62° Northeast  Level Estimated
05:53AM 39.3961 151.2414 62° Northeast  Level Estimated
05:54AM 39.4631 151.4072 62° Northeast  Level Estimated
05:55AM 39.5298 151.5733 62° Northeast  Level Estimated
05:56AM 39.5963 151.7398 63° Northeast  Level Estimated
05:57AM 39.6626 151.9066 63° Northeast  Level Estimated
05:58AM 39.7286 152.0737 63° Northeast  Level Estimated
05:59AM 39.7944 152.2411 63° Northeast  Level Estimated
06:00AM 39.8599 152.4088 63° Northeast  Level Estimated
06:01AM 39.9252 152.5768 63° Northeast  Level Estimated
06:02AM 39.9902 152.7452 63° Northeast  Level Estimated
06:03AM 40.0550 152.9139 63° Northeast  Level Estimated
06:04AM 40.1196 153.0829 63° Northeast  Level Estimated
06:05AM 40.1839 153.2522 64° Northeast  Level Estimated
06:06AM 40.2480 153.4219 64° Northeast  Level Estimated
06:07AM 40.3118 153.5919 64° Northeast  Level Estimated
06:08AM 40.3754 153.7622 64° Northeast  Level Estimated
06:09AM 40.4387 153.9328 64° Northeast  Level Estimated
06:10AM 40.5017 154.1037 64° Northeast  Level Estimated
06:11AM 40.5645 154.2750 64° Northeast  Level Estimated
06:12AM 40.6271 154.4465 64° Northeast  Level Estimated
06:13AM 40.6894 154.6184 64° Northeast  Level Estimated
06:14AM 40.7515 154.7907 65° Northeast  Level Estimated
06:15AM 40.8133 154.9632 65° Northeast  Level Estimated
06:16AM 40.8748 155.1361 65° Northeast  Level Estimated
06:17AM 40.9361 155.3092 65° Northeast  Level Estimated
06:18AM 40.9971 155.4828 65° Northeast  Level Estimated
06:19AM 41.0578 155.6566 65° Northeast  Level Estimated
06:20AM 41.1183 155.8307 65° Northeast  Level Estimated
06:21AM 41.1786 156.0052 65° Northeast  Level Estimated
06:22AM 41.2385 156.1800 65° Northeast  Level Estimated
06:23AM 41.2982 156.3551 66° East  Level Estimated
06:24AM 41.3577 156.5305 66° East  Level Estimated
06:25AM 41.4169 156.7063 66° East  Level Estimated
06:26AM 41.4758 156.8823 66° East  Level Estimated
06:27AM 41.5344 157.0587 66° East  Level Estimated
06:28AM 41.5927 157.2351 66° East  Level Estimated
06:29AM 41.6506 157.4118 66° East  Level Estimated
06:30AM 41.7084 157.5888 66° East  Level Estimated
06:31AM 41.7658 157.7662 66° East  Level Estimated
06:32AM 41.8230 157.9438 67° East  Level Estimated
06:33AM 41.8799 158.1218 67° East  Level Estimated
06:34AM 41.9365 158.3001 67° East  Level Estimated
06:35AM 41.9928 158.4787 67° East  Level Estimated
06:36AM 42.0489 158.6576 67° East  Level Estimated
06:37AM 42.1047 158.8368 67° East  Level Estimated
06:38AM 42.1602 159.0164 67° East  Level Estimated
06:39AM 42.2154 159.1962 67° East  Level Estimated
06:40AM 42.2704 159.3764 68° East  Level Estimated
06:41AM 42.3251 159.5569 68° East  Level Estimated
06:42AM 42.3794 159.7377 68° East  Level Estimated
06:43AM 42.4335 159.9188 68° East  Level Estimated
06:44AM 42.4874 160.1003 68° East  Level Estimated
06:45AM 42.5409 160.2820 68° East  Level Estimated
06:46AM 42.5941 160.4641 68° East  Level Estimated
06:47AM 42.6471 160.6464 68° East  Level Estimated
06:48AM 42.6997 160.8291 69° East  Level Estimated
06:49AM 42.7521 161.0121 69° East  Level Estimated
06:50AM 42.8042 161.1954 69° East  Level Estimated
06:51AM 42.8560 161.3790 69° East  Level Estimated
06:52AM 42.9075 161.5629 69° East  Level Estimated
06:53AM 42.9586 161.7471 69° East  Level Estimated
06:54AM 43.0095 161.9316 69° East  Level Estimated
06:55AM 43.0602 162.1164 69° East  Level Estimated
06:56AM 43.1105 162.3016 70° East  Level Estimated
06:57AM 43.1605 162.4870 70° East  Level Estimated
06:58AM 43.2102 162.6727 70° East  Level Estimated
06:59AM 43.2596 162.8588 70° East  Level Estimated
07:00AM 43.3087 163.0451 70° East  Level Estimated
07:01AM 43.3575 163.2317 70° East  Level Estimated
07:02AM 43.4060 163.4187 70° East  Level Estimated
07:03AM 43.4542 163.6059 70° East  Level Estimated
07:03AM 37.5667 167.3833 77° East 602 693 38,000  Level Oakland Oceanic (ODAPS)
07:17AM 38.0500 170.2167 73° East 612 704 38,000  Level Oakland Oceanic (ODAPS)
07:17AM 38.0667 170.2500 73° East 614 707 38,000  Level Oakland Oceanic (ODAPS)
07:31AM 38.7333 173.1333 74° East 616 709 38,000  Level Oakland Oceanic (ODAPS)
07:45AM 39.3333 176.0667 76° East 617 710 38,000  Level Oakland Oceanic (ODAPS)
07:58AM 39.8500 179.0667 78° East 621 715 38,000  Level Oakland Oceanic (ODAPS)
08:03AM 40.0000 180.0000 72° East 618 711 38,000  Level Oakland Oceanic (ODAPS)
08:12AM 40.5000 -177.9000 73° East 616 709 38,000  Level Oakland Oceanic (ODAPS)
08:26AM 41.1500 -174.8667 75° East 613 705 38,000  Level Oakland Oceanic (ODAPS)
08:40AM 41.7167 -171.8000 77° East 616 709 38,000  Level Oakland Oceanic (ODAPS)
08:48AM 42.0000 -170.0000 87° East 596 686 38,000  Level Oakland Oceanic (ODAPS)
08:54AM 42.0500 -168.6833 88° East 589 678 38,000  Level Oakland Oceanic (ODAPS)
09:08AM 42.1000 -165.5667 90° East 589 678 38,000  Level Oakland Oceanic (ODAPS)
09:22AM 42.0833 -162.5167 92° East 584 672 38,000  Level Oakland Oceanic (ODAPS)
09:33AM 42.0000 -160.0000 87° East 566 651 38,000  Level Oakland Oceanic (ODAPS)
09:35AM 42.0167 -159.4833 87° East 561 646 38,000  Level Oakland Oceanic (ODAPS)
09:49AM 42.1000 -156.5333 89° East 547 629 38,000  Level Oakland Oceanic (ODAPS)
10:03AM 42.1000 -153.7167 91° East 537 618 38,000  Level Oakland Oceanic (ODAPS)
10:17AM 42.0333 -150.9500 92° East 537 618 38,000  Level Oakland Oceanic (ODAPS)
10:22AM 42.0000 -150.0000 94° East 522 601 38,000  Level Oakland Oceanic (ODAPS)
10:31AM 41.8833 -148.2500 95° East 516 594 38,000  Level Oakland Oceanic (ODAPS)
10:45AM 41.6667 -145.6000 97° East 518 596 38,000  Level Oakland Oceanic (ODAPS)
10:59AM 41.3833 -142.9667 99° East 516 594 38,000  Level Oakland Oceanic (ODAPS)
11:13AM 41.0500 -140.3833 100° East 510 587 38,000  Level Oakland Oceanic (ODAPS)
11:15AM 41.0000 -140.0000 101° East 505 581 38,000  Level Oakland Oceanic (ODAPS)
11:26AM 40.6500 -137.8833 103° East 497 572 38,000  Level Oakland Oceanic (ODAPS)
11:40AM 40.2167 -135.4667 104° East 491 565 38,000  Level Oakland Oceanic (ODAPS)
11:54AM 39.7333 -133.1000 106° East 495 570 38,000  Level Oakland Oceanic (ODAPS)
12:08PM 39.1833 -130.7500 107° East 490 564 38,000  Level Oakland Oceanic (ODAPS)
12:12PM 39.0000 -130.0000 102° East 495 570 38,000  Level Oakland Oceanic (ODAPS)
12:22PM 38.7167 -128.3833 103° East 499 574 38,000  Level Oakland Oceanic (ODAPS)
12:27PM 38.5639 -127.5069 111° Southeast 499 574 38,000  Level Oakland Center
12:28PM 38.5307 -127.3449 103° East 499 574 38,000 -98 Level FlightAware Transoceanic
12:28PM 38.5317 -127.3361 104° East 498 573 37,900  Descending Oakland Center
12:28PM 38.5167 -127.2333 105° East 499 574 38,000 176 Climbing Oakland Oceanic (ODAPS)
12:29PM 38.4988 -127.1724 103° East 499 574 38,000  Level FlightAware Transoceanic
12:29PM 38.4983 -127.1653 105° East 498 573 38,000  Level Oakland Center
12:30PM 38.4667 -127.0000 111° Southeast 499 574 38,000  Level FlightAware Transoceanic
12:30PM 38.4647 -126.9972 104° East 495 570 38,000  Level Oakland Center
12:31PM 38.4158 -126.8324 111° Southeast 499 574 38,000  Level FlightAware Transoceanic
12:31PM 38.4086 -126.8372 114° Southeast 494 568 38,000  Level Oakland Center
12:32PM 38.3646 -126.6650 111° Southeast 499 574 38,000  Level FlightAware Transoceanic
12:32PM 38.3400 -126.6464 115° Southeast 494 568 38,000  Level Oakland Center
12:33PM 38.3132 -126.4979 111° Southeast 499 574 38,000 -97 Level FlightAware Transoceanic
12:33PM 38.2831 -126.4878 115° Southeast 494 568 37,900  Descending Oakland Center
12:34PM 38.2244 -126.3306 115° Southeast 494 568 38,000 49 Climbing Oakland Center
12:35PM 38.1669 -126.1700 114° Southeast 494 568 38,000  Level Oakland Center
12:36PM 38.1086 -126.0125 115° Southeast 494 568 38,000 -49 Level Oakland Center
12:37PM 38.0500 -125.8553 115° Southeast 494 568 37,900 -49 Descending Oakland Center
12:38PM 37.9914 -125.6972 115° Southeast 495 570 37,900 49 Level Oakland Center
12:39PM 37.9325 -125.5397 115° Southeast 495 570 38,000 49 Climbing Oakland Center
12:40PM 37.8731 -125.3811 115° Southeast 496 571 38,000  Level Oakland Center
12:41PM 37.8011 -125.1925 116° Southeast 497 572 38,000  Level Oakland Center
12:47PM 37.4646 -124.3219 116° Southeast 500 575 38,000  Level FlightAware ADS-B (KSAC)
12:48PM 37.4273 -124.2267 116° Southeast 499 574 38,000  Level FlightAware ADS-B (KSAC)
12:49PM 37.3480 -124.0250 116° Southeast 500 575 38,000  Level FlightAware ADS-B (KSAC)
12:50PM 37.2832 -123.8609 116° Southeast 500 575 38,000 -254 Level FlightAware ADS-B (KSAC)
12:51PM 37.2166 -123.6934 116° Southeast 499 574 37,500 -606 Descending FlightAware ADS-B (KSAC)
12:52PM 37.1765 -123.5933 116° Southeast 492 566 37,000 -441 Descending FlightAware ADS-B (KSAC)
12:52PM 37.1355 -123.4910 117° Southeast 491 565 37,000  Level FlightAware ADS-B
12:52PM 37.1495 -123.5258 116° Southeast 490 564 37,000  Level FlightAware ADS-B (KSAC)
12:53PM 37.1044 -123.4130 117° Southeast 490 564 37,000  Level FlightAware ADS-B
12:54PM 37.0202 -123.2040 117° Southeast 490 564 37,000  Level FlightAware ADS-B
12:54PM 37.0133 -123.1872 116° Southeast 490 564 37,000  Level FlightAware ADS-B (KSAC)
12:55PM 36.9731 -123.0883 116° Southeast 489 563 37,000  Level FlightAware ADS-B (KSAC)
12:56PM 36.9267 -122.9740 117° Southeast 491 565 37,000  Level FlightAware ADS-B
12:56PM 36.8900 -122.8850 117° Southeast 492 566 37,000  Level FlightAware ADS-B
12:57PM 36.8561 -122.8020 117° Southeast 493 567 37,000  Level FlightAware ADS-B
12:57PM 36.8179 -122.7090 117° Southeast 494 568 37,000  Level FlightAware ADS-B
12:59PM 36.7541 -122.5538 117° Southeast 494 568 37,000  Level FlightAware ADS-B (KSAC)
12:59PM 36.7164 -122.4630 117° Southeast 495 570 37,000  Level FlightAware ADS-B
12:59PM 36.6849 -122.3870 117° Southeast 494 568 37,000  Level FlightAware ADS-B
01:00PM 36.6528 -122.3100 117° Southeast 494 568 37,000  Level FlightAware ADS-B
01:01PM 36.6063 -122.2000 117° Southeast 494 568 37,000  Level FlightAware ADS-B
01:01PM 36.5714 -122.1280 120° Southeast 496 571 37,000  Level FlightAware ADS-B (KSAC)
01:04PM 36.4040 -121.8013 122° Southeast 496 571 37,000  Level FlightAware ADS-B (KSAC)
01:07PM 36.1260 -121.2660 123° Southeast 502 578 37,000  Level FlightAware ADS-B
01:08PM 36.0543 -121.1290 123° Southeast 504 580 37,000  Level FlightAware ADS-B
01:09PM 36.0157 -121.0560 123° Southeast 504 580 37,000  Level FlightAware ADS-B
01:09PM 35.9723 -120.9730 123° Southeast 505 581 37,000  Level FlightAware ADS-B
01:10PM 35.9294 -120.8920 123° Southeast 506 582 37,000  Level FlightAware ADS-B
01:13PM 35.6910 -120.4441 123° Southeast 511 588 37,000 -68 Level FlightAware ADS-B
01:14PM 35.5881 -120.2527 123° Southeast 510 587 36,700 -647 Descending FlightAware ADS-B
01:15PM 35.5415 -120.1670 124° Southeast 509 586 35,900 -1,231 Descending FlightAware ADS-B
01:15PM 35.5360 -120.1564 124° Southeast 509 586 35,900 -1,200 Level FlightAware ADS-B
01:16PM 35.4775 -120.0482 123° Southeast 507 583 34,900 -1,594 Descending FlightAware ADS-B
01:17PM 35.3775 -119.8637 124° Southeast 515 593 32,500 -1,538 Descending FlightAware ADS-B
01:18PM 35.2608 -119.6603 130° Southeast 506 582 30,800 -1,252 Descending FlightAware ADS-B
01:19PM 35.1969 -119.5912 144° Southeast 499 574 30,100 -1,237 Descending FlightAware ADS-B
01:20PM 35.0872 -119.4974 145° Southeast 497 572 28,800 -1,366 Descending FlightAware ADS-B
01:20PM 35.0063 -119.4283 144° Southeast 491 565 27,800 -1,786 Descending FlightAware ADS-B
01:21PM 34.9277 -119.3615 145° Southeast 481 554 26,300 -2,096 Descending FlightAware ADS-B
01:22PM 34.8553 -119.3002 145° Southeast 472 543 24,900 -2,080 Descending FlightAware ADS-B
01:22PM 34.7934 -119.2479 145° Southeast 463 533 23,700 -2,127 Descending FlightAware ADS-B
01:23PM 34.7152 -119.1818 145° Southeast 453 521 22,100 -2,188 Descending FlightAware ADS-B
01:24PM 34.6459 -119.1232 145° Southeast 445 512 20,600 -2,074 Descending FlightAware ADS-B
01:25PM 34.5792 -119.0674 145° Southeast 434 499 19,300 -2,100 Descending FlightAware ADS-B
01:25PM 34.5131 -119.0120 145° Southeast 425 489 17,800 -2,127 Descending FlightAware ADS-B
01:26PM 34.4502 -118.9595 145° Southeast 420 483 16,500 -1,975 Descending FlightAware ADS-B
01:27PM 34.3876 -118.9072 145° Southeast 411 473 15,200 -1,865 Descending FlightAware ADS-B
01:27PM 34.3362 -118.8748 157° South 435 501 14,200 -2,857 Descending FlightAware ADS-B
01:27PM 34.3227 -118.8688 159° South 400 460 13,200 -2,108 Descending FlightAware ADS-B
01:28PM 34.2701 -118.8495 163° South 391 450 12,900 -923 Descending FlightAware ADS-B (OPMT / MUX)
01:28PM 34.2490 -118.8417 162° South 389 448 12,600 -1,080 Descending FlightAware ADS-B
01:29PM 34.1823 -118.8171 162° South 360 414 12,000 -960 Descending FlightAware ADS-B
01:29PM 34.1295 -118.7977 163° South 390 449 11,400 -833 Descending FlightAware ADS-B (OPMT / MUX)
01:29PM 34.1295 -118.7977 163° South 347 399 11,500 -1,756 Climbing FlightAware ADS-B
01:30PM 34.0655 -118.7719 149° Southeast 340 391 10,200 -1,400 Descending FlightAware ADS-B
01:30PM 34.0477 -118.7524 128° Southeast 331 381 10,100 -500 Descending FlightAware ADS-B
01:30PM 34.0404 -118.7406 117° Southeast 324 373 10,000 -1,333 Descending FlightAware ADS-B
01:30PM 34.0395 -118.7359 115° Southeast 322 371 9,900 -333 Descending FlightAware ADS-B (OPMT / MUX)
01:30PM 34.0340 -118.7102 95° East 305 351 9,900  Level FlightAware ADS-B
01:31PM 34.0305 -118.6726 96° East 302 348 9,900 -293 Level FlightAware ADS-B
01:31PM 34.0274 -118.6402 96° East 302 348 9,700 -769 Descending FlightAware ADS-B
01:32PM 34.0244 -118.6079 96° East 297 342 9,400 -818 Descending FlightAware ADS-B
01:32PM 34.0210 -118.5701 96° East 294 338 9,100 -878 Descending FlightAware ADS-B
01:32PM 34.0185 -118.5437 115° Southeast 322 371 8,800 -1,200 Descending FlightAware ADS-B (OPMT / MUX)
01:32PM 34.0160 -118.5173 97° East 286 329 8,400 -1,200 Descending FlightAware ADS-B
01:33PM 34.0169 -118.4265 74° East 273 314 7,300 -1,167 Descending FlightAware ADS-B (OPMT / MUX)
01:34PM 34.0219 -118.4035 76° East 272 313 7,000 -1,400 Descending FlightAware ADS-B (OPMT / MUX)
01:34PM 34.0253 -118.3842 78° East 274 315 6,600 -1,548 Descending FlightAware ADS-B (OPMT / MUX)
01:34PM 34.0294 -118.3598 78° East 277 319 6,200 -1,440 Descending FlightAware ADS-B
01:34PM 34.0321 -118.3441 78° East 276 318 6,000 -1,304 Descending FlightAware ADS-B (OPMT / MUX)
01:35PM 34.0358 -118.3233 77° East 277 319 5,700 -1,059 Descending FlightAware ADS-B (OPMT / MUX)
01:35PM 34.0406 -118.2965 78° East 277 319 5,400 -1,111 Descending FlightAware ADS-B
01:35PM 34.0501 -118.2449 77° East 276 318 4,700 -1,185 Descending FlightAware ADS-B (OPMT / MUX)
01:36PM 34.0592 -118.1946 74° East 267 307 3,800 -698 Descending FlightAware ADS-B
01:39PM 33.9987 -118.0878 234° Southwest 183 211 2,500 -473 Descending FlightAware ADS-B
01:39PM 33.9852 -118.1104 237° Southwest 183 211 2,500 81 Level FlightAware ADS-B (OPMT / MUX)
01:40PM 33.9833 -118.1667 237° Southwest 185 213 2,600 54 Climbing Southern California TRACON
01:41PM 33.9667 -118.2167 248° West 186 214 2,600 -157 Level Southern California TRACON
01:42PM 33.9667 -118.2667 270° West 164 189 2,300 -626 Descending Southern California TRACON
01:43PM 33.9667 -118.3167 270° West 148 170 1,400 -810 Descending Southern California TRACON
01:44PM 33.9500 -118.3667 248° West 136 157 600 -614 Descending Southern California TRACON
01:45PM 33.9522 -118.4108 273° West 141 162 100 -492 Descending Los Angeles Center

Login

Don't have an account? Register now (free) for customized features, flight alerts, and more!